sensor_id;sensor_type;location;lat;lon;timestamp;P1;durP1;ratioP1;P2;durP2;ratioP2
77206;SDS011;66190;50.708;7.906;2023-04-01T00:01:18;6.63;;;0.90;;
77206;SDS011;66190;50.708;7.906;2023-04-01T00:03:44;4.63;;;0.90;;
77206;SDS011;66190;50.708;7.906;2023-04-01T00:06:11;4.82;;;0.70;;
77206;SDS011;66190;50.708;7.906;2023-04-01T00:08:38;2.63;;;0.55;;
77206;SDS011;66190;50.708;7.906;2023-04-01T00:11:03;6.03;;;0.73;;
77206;SDS011;66190;50.708;7.906;2023-04-01T00:13:29;6.80;;;1.07;;
77206;SDS011;66190;50.708;7.906;2023-04-01T00:15:55;5.87;;;1.00;;
77206;SDS011;66190;50.708;7.906;2023-04-01T00:18:20;4.97;;;0.80;;
77206;SDS011;66190;50.708;7.906;2023-04-01T00:20:47;3.08;;;0.60;;
77206;SDS011;66190;50.708;7.906;2023-04-01T00:23:14;4.07;;;0.60;;
77206;SDS011;66190;50.708;7.906;2023-04-01T00:25:40;5.25;;;0.80;;
77206;SDS011;66190;50.708;7.906;2023-04-01T00:28:06;5.93;;;0.93;;
77206;SDS011;66190;50.708;7.906;2023-04-01T00:30:31;4.50;;;0.70;;
77206;SDS011;66190;50.708;7.906;2023-04-01T00:32:57;5.37;;;0.97;;
77206;SDS011;66190;50.708;7.906;2023-04-01T00:35:22;5.03;;;0.77;;
77206;SDS011;66190;50.708;7.906;2023-04-01T00:37:48;3.97;;;0.60;;
77206;SDS011;66190;50.708;7.906;2023-04-01T00:40:25;3.80;;;0.80;;
77206;SDS011;66190;50.708;7.906;2023-04-01T00:42:56;4.88;;;0.60;;
77206;SDS011;66190;50.708;7.906;2023-04-01T00:45:26;3.17;;;0.50;;
77206;SDS011;66190;50.708;7.906;2023-04-01T00:47:54;4.30;;;0.50;;
77206;SDS011;66190;50.708;7.906;2023-04-01T00:50:21;4.35;;;0.73;;
77206;SDS011;66190;50.708;7.906;2023-04-01T00:52:50;4.97;;;1.02;;
77206;SDS011;66190;50.708;7.906;2023-04-01T00:55:16;2.78;;;0.60;;
77206;SDS011;66190;50.708;7.906;2023-04-01T00:57:44;4.97;;;0.40;;
77206;SDS011;66190;50.708;7.906;2023-04-01T01:00:11;3.45;;;0.70;;
77206;SDS011;66190;50.708;7.906;2023-04-01T01:02:41;4.13;;;0.95;;
77206;SDS011;66190;50.708;7.906;2023-04-01T01:05:13;4.13;;;0.60;;
77206;SDS011;66190;50.708;7.906;2023-04-01T01:10:17;5.30;;;1.13;;
77206;SDS011;66190;50.708;7.906;2023-04-01T01:15:57;3.45;;;0.52;;
77206;SDS011;66190;50.708;7.906;2023-04-01T01:18:33;3.70;;;0.60;;
77206;SDS011;66190;50.708;7.906;2023-04-01T01:37:56;3.83;;;0.50;;
77206;SDS011;66190;50.708;7.906;2023-04-01T01:40:26;3.55;;;0.60;;
77206;SDS011;66190;50.708;7.906;2023-04-01T01:42:54;4.53;;;0.60;;
77206;SDS011;66190;50.708;7.906;2023-04-01T01:45:23;3.22;;;0.93;;
77206;SDS011;66190;50.708;7.906;2023-04-01T01:47:51;4.28;;;0.70;;
77206;SDS011;66190;50.708;7.906;2023-04-01T01:50:17;5.10;;;0.70;;
77206;SDS011;66190;50.708;7.906;2023-04-01T01:52:44;2.47;;;0.50;;
77206;SDS011;66190;50.708;7.906;2023-04-01T01:58:22;2.67;;;0.52;;
77206;SDS011;66190;50.708;7.906;2023-04-01T02:00:53;5.47;;;0.60;;
77206;SDS011;66190;50.708;7.906;2023-04-01T02:03:22;3.35;;;0.73;;
77206;SDS011;66190;50.708;7.906;2023-04-01T02:05:50;4.32;;;0.70;;
77206;SDS011;66190;50.708;7.906;2023-04-01T02:08:40;2.93;;;0.60;;
77206;SDS011;66190;50.708;7.906;2023-04-01T02:11:11;3.25;;;0.50;;
77206;SDS011;66190;50.708;7.906;2023-04-01T02:13:43;3.58;;;0.47;;
77206;SDS011;66190;50.708;7.906;2023-04-01T02:16:23;5.05;;;0.52;;
77206;SDS011;66190;50.708;7.906;2023-04-01T02:18:54;6.25;;;0.85;;
77206;SDS011;66190;50.708;7.906;2023-04-01T02:21:23;3.03;;;0.60;;
77206;SDS011;66190;50.708;7.906;2023-04-01T02:23:50;4.60;;;0.60;;
77206;SDS011;66190;50.708;7.906;2023-04-01T02:26:18;4.43;;;0.60;;
77206;SDS011;66190;50.708;7.906;2023-04-01T02:28:45;3.42;;;0.60;;
77206;SDS011;66190;50.708;7.906;2023-04-01T02:31:13;6.93;;;1.00;;
77206;SDS011;66190;50.708;7.906;2023-04-01T02:33:40;5.00;;;0.60;;
77206;SDS011;66190;50.708;7.906;2023-04-01T02:36:09;3.78;;;0.50;;
77206;SDS011;66190;50.708;7.906;2023-04-01T02:38:37;6.25;;;0.90;;
77206;SDS011;66190;50.708;7.906;2023-04-01T02:41:02;3.93;;;0.73;;
77206;SDS011;66190;50.708;7.906;2023-04-01T02:43:28;4.03;;;0.55;;
77206;SDS011;66190;50.708;7.906;2023-04-01T02:45:53;6.93;;;0.50;;
77206;SDS011;66190;50.708;7.906;2023-04-01T02:48:19;6.53;;;0.73;;
77206;SDS011;66190;50.708;7.906;2023-04-01T02:50:45;4.28;;;1.02;;
77206;SDS011;66190;50.708;7.906;2023-04-01T02:53:10;3.20;;;0.53;;
77206;SDS011;66190;50.708;7.906;2023-04-01T02:55:37;3.22;;;0.47;;
77206;SDS011;66190;50.708;7.906;2023-04-01T02:58:02;2.90;;;0.52;;
77206;SDS011;66190;50.708;7.906;2023-04-01T03:00:28;2.70;;;0.50;;
77206;SDS011;66190;50.708;7.906;2023-04-01T03:02:53;4.27;;;0.50;;
77206;SDS011;66190;50.708;7.906;2023-04-01T03:05:19;4.22;;;0.68;;
77206;SDS011;66190;50.708;7.906;2023-04-01T03:07:44;4.75;;;0.57;;
77206;SDS011;66190;50.708;7.906;2023-04-01T03:10:10;3.45;;;0.60;;
77206;SDS011;66190;50.708;7.906;2023-04-01T03:12:36;3.67;;;0.50;;
77206;SDS011;66190;50.708;7.906;2023-04-01T03:15:01;4.57;;;0.87;;
77206;SDS011;66190;50.708;7.906;2023-04-01T03:17:27;3.77;;;0.50;;
77206;SDS011;66190;50.708;7.906;2023-04-01T03:19:52;2.70;;;0.60;;
77206;SDS011;66190;50.708;7.906;2023-04-01T03:22:17;4.28;;;0.70;;
77206;SDS011;66190;50.708;7.906;2023-04-01T03:24:45;6.55;;;0.80;;
77206;SDS011;66190;50.708;7.906;2023-04-01T03:27:11;2.88;;;0.65;;
77206;SDS011;66190;50.708;7.906;2023-04-01T03:29:37;5.07;;;0.70;;
77206;SDS011;66190;50.708;7.906;2023-04-01T03:32:02;3.00;;;0.60;;
77206;SDS011;66190;50.708;7.906;2023-04-01T03:34:27;2.20;;;0.50;;
77206;SDS011;66190;50.708;7.906;2023-04-01T03:36:53;5.13;;;0.52;;
77206;SDS011;66190;50.708;7.906;2023-04-01T03:39:18;4.40;;;0.60;;
77206;SDS011;66190;50.708;7.906;2023-04-01T03:41:44;4.63;;;0.50;;
77206;SDS011;66190;50.708;7.906;2023-04-01T03:44:10;3.83;;;0.65;;
77206;SDS011;66190;50.708;7.906;2023-04-01T03:46:36;5.60;;;0.43;;
77206;SDS011;66190;50.708;7.906;2023-04-01T03:49:02;2.90;;;0.50;;
77206;SDS011;66190;50.708;7.906;2023-04-01T03:51:27;2.67;;;0.40;;
77206;SDS011;66190;50.708;7.906;2023-04-01T03:53:53;2.00;;;0.40;;
77206;SDS011;66190;50.708;7.906;2023-04-01T03:56:18;3.58;;;0.70;;
77206;SDS011;66190;50.708;7.906;2023-04-01T03:58:44;3.53;;;0.50;;
77206;SDS011;66190;50.708;7.906;2023-04-01T04:01:13;2.83;;;0.50;;
77206;SDS011;66190;50.708;7.906;2023-04-01T04:03:43;3.25;;;0.50;;
77206;SDS011;66190;50.708;7.906;2023-04-01T04:06:15;2.27;;;0.50;;
77206;SDS011;66190;50.708;7.906;2023-04-01T04:08:42;2.60;;;0.50;;
77206;SDS011;66190;50.708;7.906;2023-04-01T04:11:08;2.25;;;0.50;;
77206;SDS011;66190;50.708;7.906;2023-04-01T04:13:34;2.53;;;0.63;;
77206;SDS011;66190;50.708;7.906;2023-04-01T04:16:00;2.78;;;0.50;;
77206;SDS011;66190;50.708;7.906;2023-04-01T04:18:26;3.03;;;0.50;;
77206;SDS011;66190;50.708;7.906;2023-04-01T04:20:52;2.90;;;0.47;;
77206;SDS011;66190;50.708;7.906;2023-04-01T04:23:17;2.57;;;0.40;;
77206;SDS011;66190;50.708;7.906;2023-04-01T04:25:59;2.00;;;0.40;;
77206;SDS011;66190;50.708;7.906;2023-04-01T04:28:27;2.87;;;0.70;;
77206;SDS011;66190;50.708;7.906;2023-04-01T04:30:53;2.42;;;0.52;;
77206;SDS011;66190;50.708;7.906;2023-04-01T04:33:19;2.03;;;0.50;;
77206;SDS011;66190;50.708;7.906;2023-04-01T04:35:46;3.83;;;0.70;;
77206;SDS011;66190;50.708;7.906;2023-04-01T04:38:11;2.90;;;0.50;;
77206;SDS011;66190;50.708;7.906;2023-04-01T04:40:37;3.33;;;0.50;;
77206;SDS011;66190;50.708;7.906;2023-04-01T04:43:03;3.00;;;0.50;;
77206;SDS011;66190;50.708;7.906;2023-04-01T04:45:28;3.20;;;0.60;;
77206;SDS011;66190;50.708;7.906;2023-04-01T04:47:54;2.83;;;0.50;;
77206;SDS011;66190;50.708;7.906;2023-04-01T04:50:19;3.03;;;0.57;;
77206;SDS011;66190;50.708;7.906;2023-04-01T04:52:45;2.73;;;0.50;;
77206;SDS011;66190;50.708;7.906;2023-04-01T04:55:10;3.37;;;0.50;;
77206;SDS011;66190;50.708;7.906;2023-04-01T04:57:35;2.90;;;0.50;;
77206;SDS011;66190;50.708;7.906;2023-04-01T05:00:01;3.28;;;0.68;;
77206;SDS011;66190;50.708;7.906;2023-04-01T05:02:26;2.57;;;0.50;;
77206;SDS011;66190;50.708;7.906;2023-04-01T05:04:52;3.60;;;0.60;;
77206;SDS011;66190;50.708;7.906;2023-04-01T05:07:17;4.07;;;0.60;;
77206;SDS011;66190;50.708;7.906;2023-04-01T05:09:42;4.47;;;0.60;;
77206;SDS011;66190;50.708;7.906;2023-04-01T05:12:08;2.13;;;0.50;;
77206;SDS011;66190;50.708;7.906;2023-04-01T05:14:33;2.53;;;0.55;;
77206;SDS011;66190;50.708;7.906;2023-04-01T05:16:58;2.83;;;0.70;;
77206;SDS011;66190;50.708;7.906;2023-04-01T05:19:24;4.47;;;0.77;;
77206;SDS011;66190;50.708;7.906;2023-04-01T05:21:49;2.13;;;0.80;;
77206;SDS011;66190;50.708;7.906;2023-04-01T05:24:15;2.00;;;0.50;;
77206;SDS011;66190;50.708;7.906;2023-04-01T05:26:40;2.55;;;0.50;;
77206;SDS011;66190;50.708;7.906;2023-04-01T05:29:06;3.40;;;0.50;;
77206;SDS011;66190;50.708;7.906;2023-04-01T05:31:31;3.03;;;0.60;;
77206;SDS011;66190;50.708;7.906;2023-04-01T05:33:57;3.20;;;0.70;;
77206;SDS011;66190;50.708;7.906;2023-04-01T05:36:22;2.35;;;0.55;;
77206;SDS011;66190;50.708;7.906;2023-04-01T05:38:47;3.60;;;0.70;;
77206;SDS011;66190;50.708;7.906;2023-04-01T05:41:14;3.42;;;0.50;;
77206;SDS011;66190;50.708;7.906;2023-04-01T05:43:40;3.07;;;0.60;;
77206;SDS011;66190;50.708;7.906;2023-04-01T05:46:06;2.67;;;0.55;;
77206;SDS011;66190;50.708;7.906;2023-04-01T05:48:34;4.30;;;0.70;;
77206;SDS011;66190;50.708;7.906;2023-04-01T05:51:00;2.78;;;0.85;;
77206;SDS011;66190;50.708;7.906;2023-04-01T05:53:26;2.88;;;0.60;;
77206;SDS011;66190;50.708;7.906;2023-04-01T05:55:52;3.37;;;0.70;;
77206;SDS011;66190;50.708;7.906;2023-04-01T05:58:17;6.13;;;1.07;;
77206;SDS011;66190;50.708;7.906;2023-04-01T06:00:42;2.42;;;0.50;;
77206;SDS011;66190;50.708;7.906;2023-04-01T06:03:08;2.33;;;0.40;;
77206;SDS011;66190;50.708;7.906;2023-04-01T06:05:43;3.33;;;0.70;;
77206;SDS011;66190;50.708;7.906;2023-04-01T06:08:13;2.63;;;0.63;;
77206;SDS011;66190;50.708;7.906;2023-04-01T06:13:18;6.57;;;0.50;;
77206;SDS011;66190;50.708;7.906;2023-04-01T06:16:17;2.03;;;0.43;;
77206;SDS011;66190;50.708;7.906;2023-04-01T06:19:08;2.38;;;0.40;;
77206;SDS011;66190;50.708;7.906;2023-04-01T06:22:08;3.10;;;0.53;;
77206;SDS011;66190;50.708;7.906;2023-04-01T06:27:49;4.38;;;0.80;;
77206;SDS011;66190;50.708;7.906;2023-04-01T06:41:59;3.83;;;0.60;;
77206;SDS011;66190;50.708;7.906;2023-04-01T06:44:53;2.30;;;0.50;;
77206;SDS011;66190;50.708;7.906;2023-04-01T06:56:30;3.17;;;0.70;;
77206;SDS011;66190;50.708;7.906;2023-04-01T07:01:38;3.38;;;0.55;;
77206;SDS011;66190;50.708;7.906;2023-04-01T07:06:58;2.88;;;0.60;;
77206;SDS011;66190;50.708;7.906;2023-04-01T07:09:37;3.00;;;0.60;;
77206;SDS011;66190;50.708;7.906;2023-04-01T07:13:06;3.22;;;0.75;;
77206;SDS011;66190;50.708;7.906;2023-04-01T07:15:22;4.32;;;0.90;;
77206;SDS011;66190;50.708;7.906;2023-04-01T07:17:54;2.30;;;0.47;;
77206;SDS011;66190;50.708;7.906;2023-04-01T07:20:27;2.70;;;0.50;;
77206;SDS011;66190;50.708;7.906;2023-04-01T07:22:56;3.88;;;0.70;;
77206;SDS011;66190;50.708;7.906;2023-04-01T07:25:28;3.97;;;0.50;;
77206;SDS011;66190;50.708;7.906;2023-04-01T07:28:12;2.85;;;0.73;;
77206;SDS011;66190;50.708;7.906;2023-04-01T07:31:15;3.17;;;0.60;;
77206;SDS011;66190;50.708;7.906;2023-04-01T07:34:16;3.03;;;0.60;;
77206;SDS011;66190;50.708;7.906;2023-04-01T07:37:00;3.90;;;0.82;;
77206;SDS011;66190;50.708;7.906;2023-04-01T07:39:55;3.05;;;0.60;;
77206;SDS011;66190;50.708;7.906;2023-04-01T07:50:28;2.20;;;0.40;;
77206;SDS011;66190;50.708;7.906;2023-04-01T08:06:13;2.27;;;0.60;;
77206;SDS011;66190;50.708;7.906;2023-04-01T08:14:17;2.78;;;0.60;;
77206;SDS011;66190;50.708;7.906;2023-04-01T08:22:12;4.88;;;0.90;;
77206;SDS011;66190;50.708;7.906;2023-04-01T08:24:45;3.35;;;0.70;;
77206;SDS011;66190;50.708;7.906;2023-04-01T08:27:17;3.90;;;0.80;;
77206;SDS011;66190;50.708;7.906;2023-04-01T08:29:48;4.72;;;0.95;;
77206;SDS011;66190;50.708;7.906;2023-04-01T08:32:24;3.90;;;0.77;;
77206;SDS011;66190;50.708;7.906;2023-04-01T08:37:43;2.80;;;0.65;;
77206;SDS011;66190;50.708;7.906;2023-04-01T08:56:18;3.88;;;0.90;;
77206;SDS011;66190;50.708;7.906;2023-04-01T08:58:58;3.45;;;0.60;;
77206;SDS011;66190;50.708;7.906;2023-04-01T09:07:17;4.90;;;0.98;;
77206;SDS011;66190;50.708;7.906;2023-04-01T09:09:55;5.35;;;1.20;;
77206;SDS011;66190;50.708;7.906;2023-04-01T09:12:28;3.97;;;0.73;;
77206;SDS011;66190;50.708;7.906;2023-04-01T09:15:12;4.18;;;0.80;;
77206;SDS011;66190;50.708;7.906;2023-04-01T09:20:52;4.15;;;0.90;;
77206;SDS011;66190;50.708;7.906;2023-04-01T09:29:00;3.97;;;0.80;;
77206;SDS011;66190;50.708;7.906;2023-04-01T09:34:41;5.07;;;1.13;;
77206;SDS011;66190;50.708;7.906;2023-04-01T09:44:57;6.38;;;1.33;;
77206;SDS011;66190;50.708;7.906;2023-04-01T09:47:33;4.13;;;0.98;;
77206;SDS011;66190;50.708;7.906;2023-04-01T10:02:01;6.28;;;1.23;;
77206;SDS011;66190;50.708;7.906;2023-04-01T10:07:31;4.90;;;1.40;;
77206;SDS011;66190;50.708;7.906;2023-04-01T10:29:31;4.22;;;1.00;;
77206;SDS011;66190;50.708;7.906;2023-04-01T10:32:15;11.43;;;6.32;;
77206;SDS011;66190;50.708;7.906;2023-04-01T10:49:28;5.30;;;1.73;;
77206;SDS011;66190;50.708;7.906;2023-04-01T10:55:19;4.20;;;0.77;;
77206;SDS011;66190;50.708;7.906;2023-04-01T11:09:18;4.53;;;1.13;;
77206;SDS011;66190;50.708;7.906;2023-04-01T11:15:10;8.02;;;3.67;;
77206;SDS011;66190;50.708;7.906;2023-04-01T11:23:16;4.40;;;1.27;;
77206;SDS011;66190;50.708;7.906;2023-04-01T11:26:08;4.60;;;1.73;;
77206;SDS011;66190;50.708;7.906;2023-04-01T11:34:16;4.32;;;1.15;;
77206;SDS011;66190;50.708;7.906;2023-04-01T11:45:48;4.88;;;1.52;;
77206;SDS011;66190;50.708;7.906;2023-04-01T12:13:14;3.88;;;1.00;;
77206;SDS011;66190;50.708;7.906;2023-04-01T12:21:11;5.30;;;1.63;;
77206;SDS011;66190;50.708;7.906;2023-04-01T12:35:29;4.43;;;1.30;;
77206;SDS011;66190;50.708;7.906;2023-04-01T12:40:56;5.75;;;1.73;;
77206;SDS011;66190;50.708;7.906;2023-04-01T13:00:40;4.22;;;1.10;;
77206;SDS011;66190;50.708;7.906;2023-04-01T13:06:16;4.07;;;1.15;;
77206;SDS011;66190;50.708;7.906;2023-04-01T13:20:24;3.95;;;1.15;;
77206;SDS011;66190;50.708;7.906;2023-04-01T13:26:10;4.05;;;1.10;;
77206;SDS011;66190;50.708;7.906;2023-04-01T13:28:47;3.72;;;1.25;;
77206;SDS011;66190;50.708;7.906;2023-04-01T13:44:48;6.23;;;2.20;;
77206;SDS011;66190;50.708;7.906;2023-04-01T13:58:33;4.50;;;1.40;;
77206;SDS011;66190;50.708;7.906;2023-04-01T14:06:58;5.70;;;1.20;;
77206;SDS011;66190;50.708;7.906;2023-04-01T14:09:48;3.92;;;1.23;;
77206;SDS011;66190;50.708;7.906;2023-04-01T14:26:16;3.97;;;0.70;;
77206;SDS011;66190;50.708;7.906;2023-04-01T14:28:56;2.20;;;0.60;;
77206;SDS011;66190;50.708;7.906;2023-04-01T14:32:03;2.93;;;0.70;;
77206;SDS011;66190;50.708;7.906;2023-04-01T14:48:57;3.08;;;0.82;;
77206;SDS011;66190;50.708;7.906;2023-04-01T14:56:37;4.40;;;1.52;;
77206;SDS011;66190;50.708;7.906;2023-04-01T14:59:10;4.50;;;1.10;;
77206;SDS011;66190;50.708;7.906;2023-04-01T15:21:44;5.22;;;1.50;;
77206;SDS011;66190;50.708;7.906;2023-04-01T15:24:24;4.35;;;1.20;;
77206;SDS011;66190;50.708;7.906;2023-04-01T15:27:07;4.35;;;1.48;;
77206;SDS011;66190;50.708;7.906;2023-04-01T15:38:35;5.60;;;2.00;;
77206;SDS011;66190;50.708;7.906;2023-04-01T15:43:43;7.95;;;3.60;;
77206;SDS011;66190;50.708;7.906;2023-04-01T15:46:24;5.68;;;1.70;;
77206;SDS011;66190;50.708;7.906;2023-04-01T15:56:48;5.03;;;1.50;;
77206;SDS011;66190;50.708;7.906;2023-04-01T15:59:44;4.18;;;1.25;;
77206;SDS011;66190;50.708;7.906;2023-04-01T16:02:39;5.10;;;2.23;;
77206;SDS011;66190;50.708;7.906;2023-04-01T16:18:38;5.13;;;1.42;;
77206;SDS011;66190;50.708;7.906;2023-04-01T16:21:13;5.65;;;2.45;;
77206;SDS011;66190;50.708;7.906;2023-04-01T16:23:55;7.90;;;3.88;;
77206;SDS011;66190;50.708;7.906;2023-04-01T16:26:32;5.00;;;2.03;;
77206;SDS011;66190;50.708;7.906;2023-04-01T16:32:18;5.50;;;2.35;;
77206;SDS011;66190;50.708;7.906;2023-04-01T16:37:50;6.00;;;2.20;;
77206;SDS011;66190;50.708;7.906;2023-04-01T16:40:26;5.65;;;2.10;;
77206;SDS011;66190;50.708;7.906;2023-04-01T16:43:06;4.93;;;2.00;;
77206;SDS011;66190;50.708;7.906;2023-04-01T16:45:43;5.47;;;2.05;;
77206;SDS011;66190;50.708;7.906;2023-04-01T16:48:20;5.25;;;1.75;;
77206;SDS011;66190;50.708;7.906;2023-04-01T16:50:58;5.40;;;1.98;;
77206;SDS011;66190;50.708;7.906;2023-04-01T16:53:41;4.78;;;1.83;;
77206;SDS011;66190;50.708;7.906;2023-04-01T16:56:21;5.00;;;1.40;;
77206;SDS011;66190;50.708;7.906;2023-04-01T17:01:23;4.82;;;1.45;;
77206;SDS011;66190;50.708;7.906;2023-04-01T17:04:00;5.93;;;2.40;;
77206;SDS011;66190;50.708;7.906;2023-04-01T17:20:12;5.20;;;1.80;;
77206;SDS011;66190;50.708;7.906;2023-04-01T17:23:17;4.90;;;1.80;;
77206;SDS011;66190;50.708;7.906;2023-04-01T17:26:05;5.80;;;1.77;;
77206;SDS011;66190;50.708;7.906;2023-04-01T17:31:14;5.60;;;2.40;;
77206;SDS011;66190;50.708;7.906;2023-04-01T17:36:52;7.28;;;2.00;;
77206;SDS011;66190;50.708;7.906;2023-04-01T17:39:45;5.38;;;1.83;;
77206;SDS011;66190;50.708;7.906;2023-04-01T17:50:30;5.43;;;1.90;;
77206;SDS011;66190;50.708;7.906;2023-04-01T18:01:40;5.03;;;1.90;;
77206;SDS011;66190;50.708;7.906;2023-04-01T18:18:17;8.00;;;3.50;;
77206;SDS011;66190;50.708;7.906;2023-04-01T18:23:56;5.50;;;2.30;;
77206;SDS011;66190;50.708;7.906;2023-04-01T18:26:31;6.22;;;2.65;;
77206;SDS011;66190;50.708;7.906;2023-04-01T18:31:34;4.63;;;1.50;;
77206;SDS011;66190;50.708;7.906;2023-04-01T18:43:00;4.88;;;1.90;;
77206;SDS011;66190;50.708;7.906;2023-04-01T18:45:47;5.67;;;2.77;;
77206;SDS011;66190;50.708;7.906;2023-04-01T18:48:39;6.00;;;2.50;;
77206;SDS011;66190;50.708;7.906;2023-04-01T18:51:49;5.45;;;1.80;;
77206;SDS011;66190;50.708;7.906;2023-04-01T18:54:37;7.45;;;3.20;;
77206;SDS011;66190;50.708;7.906;2023-04-01T18:57:14;6.72;;;2.88;;
77206;SDS011;66190;50.708;7.906;2023-04-01T18:59:57;5.27;;;2.13;;
77206;SDS011;66190;50.708;7.906;2023-04-01T19:02:38;6.43;;;2.45;;
77206;SDS011;66190;50.708;7.906;2023-04-01T19:07:56;7.75;;;3.00;;
77206;SDS011;66190;50.708;7.906;2023-04-01T19:13:37;6.13;;;2.63;;
77206;SDS011;66190;50.708;7.906;2023-04-01T19:21:56;7.32;;;3.00;;
77206;SDS011;66190;50.708;7.906;2023-04-01T19:30:10;9.52;;;4.60;;
77206;SDS011;66190;50.708;7.906;2023-04-01T19:41:25;10.53;;;4.83;;
77206;SDS011;66190;50.708;7.906;2023-04-01T19:46:53;5.80;;;2.17;;
77206;SDS011;66190;50.708;7.906;2023-04-01T19:49:27;5.60;;;1.90;;
77206;SDS011;66190;50.708;7.906;2023-04-01T20:00:04;5.68;;;2.30;;
77206;SDS011;66190;50.708;7.906;2023-04-01T20:02:45;6.78;;;2.35;;
77206;SDS011;66190;50.708;7.906;2023-04-01T20:11:10;6.40;;;2.58;;
77206;SDS011;66190;50.708;7.906;2023-04-01T20:13:53;5.75;;;2.20;;
77206;SDS011;66190;50.708;7.906;2023-04-01T20:19:35;6.72;;;2.72;;
77206;SDS011;66190;50.708;7.906;2023-04-01T20:26:11;7.30;;;3.42;;
77206;SDS011;66190;50.708;7.906;2023-04-01T20:28:13;6.75;;;2.95;;
77206;SDS011;66190;50.708;7.906;2023-04-01T20:33:33;6.55;;;2.85;;
77206;SDS011;66190;50.708;7.906;2023-04-01T20:36:30;6.50;;;3.03;;
77206;SDS011;66190;50.708;7.906;2023-04-01T20:47:30;7.80;;;2.88;;
77206;SDS011;66190;50.708;7.906;2023-04-01T20:53:05;8.02;;;3.40;;
77206;SDS011;66190;50.708;7.906;2023-04-01T21:01:34;5.75;;;2.28;;
77206;SDS011;66190;50.708;7.906;2023-04-01T21:04:17;5.50;;;2.37;;
77206;SDS011;66190;50.708;7.906;2023-04-01T21:07:01;6.95;;;3.17;;
77206;SDS011;66190;50.708;7.906;2023-04-01T21:32:17;7.77;;;2.77;;
77206;SDS011;66190;50.708;7.906;2023-04-01T21:34:57;8.18;;;2.92;;
77206;SDS011;66190;50.708;7.906;2023-04-01T21:37:36;7.72;;;3.53;;
77206;SDS011;66190;50.708;7.906;2023-04-01T22:05:11;7.20;;;3.10;;
77206;SDS011;66190;50.708;7.906;2023-04-01T22:22:08;6.90;;;3.10;;
77206;SDS011;66190;50.708;7.906;2023-04-01T22:24:34;8.75;;;3.47;;
77206;SDS011;66190;50.708;7.906;2023-04-01T22:32:43;9.32;;;4.22;;
77206;SDS011;66190;50.708;7.906;2023-04-01T22:46:03;7.07;;;2.40;;
77206;SDS011;66190;50.708;7.906;2023-04-01T22:48:42;6.57;;;2.58;;
77206;SDS011;66190;50.708;7.906;2023-04-01T22:57:07;6.72;;;2.42;;
77206;SDS011;66190;50.708;7.906;2023-04-01T22:59:38;8.63;;;2.58;;
77206;SDS011;66190;50.708;7.906;2023-04-01T23:02:16;6.82;;;2.58;;
77206;SDS011;66190;50.708;7.906;2023-04-01T23:04:47;7.43;;;2.65;;
77206;SDS011;66190;50.708;7.906;2023-04-01T23:10:02;7.97;;;2.75;;
77206;SDS011;66190;50.708;7.906;2023-04-01T23:12:31;8.43;;;3.00;;
77206;SDS011;66190;50.708;7.906;2023-04-01T23:14:59;7.00;;;2.58;;
77206;SDS011;66190;50.708;7.906;2023-04-01T23:27:55;6.93;;;2.40;;
77206;SDS011;66190;50.708;7.906;2023-04-01T23:35:49;5.50;;;1.75;;
77206;SDS011;66190;50.708;7.906;2023-04-01T23:38:21;6.38;;;2.17;;
77206;SDS011;66190;50.708;7.906;2023-04-01T23:40:50;5.93;;;1.88;;
77206;SDS011;66190;50.708;7.906;2023-04-01T23:43:28;5.85;;;2.03;;
77206;SDS011;66190;50.708;7.906;2023-04-01T23:46:00;6.20;;;1.77;;
77206;SDS011;66190;50.708;7.906;2023-04-01T23:48:32;5.75;;;1.90;;
77206;SDS011;66190;50.708;7.906;2023-04-01T23:51:00;6.03;;;2.17;;
77206;SDS011;66190;50.708;7.906;2023-04-01T23:53:28;7.63;;;2.50;;
77206;SDS011;66190;50.708;7.906;2023-04-01T23:55:57;6.30;;;2.10;;
77206;SDS011;66190;50.708;7.906;2023-04-01T23:58:25;6.20;;;1.97;;
